Time;durP1;ratioP1;P1;durP2;ratioP2;P2;SDS_P1;SDS_P2;PMS_P1;PMS_P2;Temp;Humidity;BMP_temperature;BMP_pressure;BME280_temperature;BME280_humidity;BME280_pressure;Samples;Min_cycle;Max_cycle;Signal;HPM_P1;HPM_P2
2024/03/18 00:00:14;;;;;;;22.23;4.43;;;8.50;99.90;;;;;;4994676;28;20028;-89
2024/03/18 00:02:42;;;;;;;18.75;2.50;;;8.50;99.90;;;;;;4977354;28;20018;-88
2024/03/18 00:05:10;;;;;;;18.60;2.55;;;8.50;99.90;;;;;;4977871;28;20065;-87
2024/03/18 00:07:36;;;;;;;11.48;2.08;;;8.50;99.90;;;;;;4977944;28;20022;-90
2024/03/18 00:10:02;;;;;;;18.40;1.85;;;8.50;99.90;;;;;;4977792;28;20443;-88
2024/03/18 00:12:27;;;;;;;15.80;2.92;;;8.50;99.90;;;;;;4978004;28;20018;-88
2024/03/18 00:14:54;;;;;;;17.50;3.20;;;8.50;99.90;;;;;;4978094;28;20053;-88
2024/03/18 00:17:20;;;;;;;16.33;2.30;;;8.50;99.90;;;;;;4978158;28;20096;-88
2024/03/18 00:19:48;;;;;;;20.67;2.58;;;8.50;99.90;;;;;;4977078;28;20471;-88
2024/03/18 00:22:13;;;;;;;20.48;2.22;;;8.50;99.90;;;;;;4977272;28;20018;-88
2024/03/18 00:24:39;;;;;;;18.92;2.75;;;8.50;99.90;;;;;;4977503;28;20361;-87
2024/03/18 00:27:05;;;;;;;10.70;1.95;;;8.50;99.90;;;;;;4977794;28;20488;-88
2024/03/18 00:29:30;;;;;;;16.83;2.53;;;8.50;99.90;;;;;;4977912;28;20022;-87
2024/03/18 00:31:56;;;;;;;19.02;3.63;;;8.50;99.90;;;;;;4977623;28;20121;-87
2024/03/18 00:34:22;;;;;;;20.88;2.30;;;8.50;99.90;;;;;;4977159;28;20129;-86
2024/03/18 00:36:48;;;;;;;13.45;2.45;;;8.50;99.90;;;;;;4977500;28;20065;-88
2024/03/18 00:39:14;;;;;;;17.25;2.10;;;8.50;99.90;;;;;;4977042;28;20034;-88
2024/03/18 00:41:46;;;;;;;13.77;1.65;;;8.50;99.90;;;;;;4976544;28;20411;-87
2024/03/18 00:44:14;;;;;;;18.80;2.00;;;8.50;99.90;;;;;;4994068;28;20053;-87
2024/03/18 00:46:44;;;;;;;13.98;2.20;;;8.50;99.90;;;;;;4976443;28;20022;-87
2024/03/18 00:49:10;;;;;;;17.58;2.22;;;8.50;99.90;;;;;;4976452;28;20032;-88
2024/03/18 00:51:37;;;;;;;16.60;1.77;;;8.50;99.90;;;;;;4976603;28;20066;-88
2024/03/18 00:54:02;;;;;;;14.43;1.98;;;8.50;99.90;;;;;;4976220;28;20050;-89
2024/03/18 00:56:28;;;;;;;16.98;2.40;;;8.50;99.90;;;;;;4976465;28;20023;-89
2024/03/18 00:58:57;;;;;;;16.27;2.55;;;8.50;99.90;;;;;;4978139;28;20022;-89
2024/03/18 01:01:23;;;;;;;16.92;2.33;;;8.50;99.90;;;;;;4980058;28;20022;-88
2024/03/18 01:03:48;;;;;;;19.63;3.08;;;8.40;99.90;;;;;;4980541;28;20546;-88
2024/03/18 01:06:14;;;;;;;16.33;2.35;;;8.40;99.90;;;;;;4980517;28;20618;-88
2024/03/18 01:08:41;;;;;;;15.60;3.00;;;8.40;99.90;;;;;;4980118;28;20030;-87
2024/03/18 01:11:06;;;;;;;20.92;2.80;;;8.40;99.90;;;;;;4979974;28;20026;-88
2024/03/18 01:13:34;;;;;;;23.73;4.30;;;8.30;99.90;;;;;;4980046;28;20498;-87
2024/03/18 01:16:00;;;;;;;21.10;2.63;;;8.30;99.90;;;;;;4979755;28;20029;-91
2024/03/18 01:18:27;;;;;;;13.20;2.00;;;8.30;99.90;;;;;;4982475;28;20499;-87
2024/03/18 01:20:53;;;;;;;15.95;3.08;;;8.30;99.90;;;;;;4982334;28;20088;-87
2024/03/18 01:23:19;;;;;;;12.13;2.15;;;8.30;99.90;;;;;;4980462;28;20034;-88
2024/03/18 01:25:44;;;;;;;16.80;2.28;;;8.30;99.90;;;;;;4979581;28;20026;-88
2024/03/18 01:28:10;;;;;;;18.83;2.30;;;8.30;99.90;;;;;;4979875;28;20029;-87
2024/03/18 01:30:36;;;;;;;16.77;2.08;;;8.30;99.90;;;;;;4980032;28;20065;-89
2024/03/18 01:33:02;;;;;;;16.40;2.85;;;8.30;99.90;;;;;;4979976;28;20026;-88
2024/03/18 01:35:33;;;;;;;12.68;1.85;;;8.30;99.90;;;;;;4979903;28;20420;-89
2024/03/18 01:38:02;;;;;;;12.70;3.58;;;8.30;99.90;;;;;;4979542;28;20033;-89
2024/03/18 01:40:28;;;;;;;15.30;1.63;;;8.30;99.90;;;;;;4980005;28;20117;-90
2024/03/18 01:42:54;;;;;;;9.82;1.45;;;8.30;99.90;;;;;;4979565;28;20272;-88
2024/03/18 01:45:24;;;;;;;15.32;2.15;;;8.20;99.90;;;;;;4979485;28;20384;-89
2024/03/18 01:47:54;;;;;;;18.92;3.88;;;8.20;99.90;;;;;;4979416;28;20026;-89
2024/03/18 01:50:20;;;;;;;15.00;2.30;;;8.20;99.90;;;;;;4979337;28;20087;-88
2024/03/18 01:52:46;;;;;;;28.25;3.85;;;8.20;99.90;;;;;;4979248;28;20058;-89
2024/03/18 01:55:16;;;;;;;13.30;1.80;;;8.20;99.90;;;;;;4979561;28;20113;-88
2024/03/18 01:57:43;;;;;;;11.38;1.48;;;8.10;99.90;;;;;;4979217;28;20026;-89
2024/03/18 02:00:15;;;;;;;13.45;2.00;;;8.10;99.90;;;;;;4979536;28;20101;-89
2024/03/18 02:02:42;;;;;;;18.80;2.33;;;8.10;99.90;;;;;;4979035;28;20057;-88
2024/03/18 02:05:07;;;;;;;8.43;1.73;;;8.10;99.90;;;;;;4978927;28;20026;-88
2024/03/18 02:07:33;;;;;;;8.68;1.75;;;8.00;99.90;;;;;;4979813;28;20501;-88
2024/03/18 02:10:00;;;;;;;13.13;2.13;;;8.00;99.90;;;;;;4978712;28;20038;-88
2024/03/18 02:12:26;;;;;;;21.17;2.92;;;8.00;99.90;;;;;;4978583;28;20145;-89
2024/03/18 02:14:52;;;;;;;16.38;3.10;;;7.90;99.90;;;;;;4978801;28;20130;-88
2024/03/18 02:17:18;;;;;;;24.55;2.17;;;7.90;99.90;;;;;;4978918;28;20141;-88
2024/03/18 02:19:44;;;;;;;17.67;3.40;;;7.90;99.90;;;;;;4979222;28;20421;-88
2024/03/18 02:22:10;;;;;;;16.23;3.50;;;7.90;99.90;;;;;;4978745;28;20022;-88
2024/03/18 02:24:36;;;;;;;17.27;2.05;;;7.80;99.90;;;;;;4978630;28;20054;-88
2024/03/18 02:27:09;;;;;;;16.67;2.58;;;7.70;99.90;;;;;;4978216;28;20056;-87
2024/03/18 02:29:35;;;;;;;15.13;2.20;;;7.70;99.90;;;;;;4978608;28;20026;-88
2024/03/18 02:32:01;;;;;;;12.15;2.13;;;7.70;99.90;;;;;;4978768;28;20037;-86
2024/03/18 02:34:27;;;;;;;13.07;2.45;;;7.60;99.90;;;;;;4978420;28;20046;-88
2024/03/18 02:36:53;;;;;;;14.85;1.90;;;7.60;99.90;;;;;;4978627;28;20023;-88
2024/03/18 02:39:24;;;;;;;20.42;2.17;;;7.60;99.90;;;;;;4978702;28;20096;-88
2024/03/18 02:41:51;;;;;;;9.88;1.92;;;7.50;99.90;;;;;;4963085;28;20193;-88
2024/03/18 02:44:17;;;;;;;14.25;2.13;;;7.50;99.90;;;;;;4978306;28;20035;-88
2024/03/18 02:46:44;;;;;;;18.10;4.80;;;7.50;99.90;;;;;;4978781;28;20026;-88
2024/03/18 02:49:10;;;;;;;15.23;1.92;;;7.50;99.90;;;;;;4978498;28;20034;-88
2024/03/18 02:51:36;;;;;;;9.95;1.73;;;7.40;99.90;;;;;;4978265;28;20443;-88
2024/03/18 02:54:04;;;;;;;15.15;3.28;;;7.40;99.90;;;;;;4978336;28;20069;-88
2024/03/18 02:56:30;;;;;;;25.15;3.78;;;7.40;99.90;;;;;;4978113;28;20549;-88
2024/03/18 02:58:56;;;;;;;11.30;1.95;;;7.30;99.90;;;;;;4978313;28;20038;-88
2024/03/18 03:01:23;;;;;;;14.90;1.75;;;7.30;99.90;;;;;;4978107;28;20076;-88
2024/03/18 03:03:51;;;;;;;13.73;2.03;;;7.20;99.90;;;;;;4978225;28;20039;-88
2024/03/18 03:06:17;;;;;;;18.42;2.30;;;7.20;99.90;;;;;;4978150;28;20034;-88
2024/03/18 03:08:42;;;;;;;15.55;1.80;;;7.20;99.90;;;;;;4978247;28;20026;-88
2024/03/18 03:11:09;;;;;;;15.85;1.95;;;7.20;99.90;;;;;;4977316;28;20030;-89
2024/03/18 03:13:35;;;;;;;9.75;1.98;;;7.10;99.90;;;;;;4977882;28;20045;-88
2024/03/18 03:16:01;;;;;;;17.55;2.75;;;7.10;99.90;;;;;;4977711;28;20488;-88
2024/03/18 03:18:26;;;;;;;10.77;1.90;;;7.10;99.90;;;;;;4978107;28;20026;-88
2024/03/18 03:20:53;;;;;;;14.85;2.47;;;7.00;99.90;;;;;;4977718;28;20034;-87
2024/03/18 03:23:20;;;;;;;16.33;2.22;;;7.00;99.90;;;;;;4978249;28;20034;-88
2024/03/18 03:25:48;;;;;;;16.25;1.85;;;7.00;99.90;;;;;;4978451;28;20026;-88
2024/03/18 03:28:14;;;;;;;13.43;1.70;;;6.90;99.90;;;;;;4978613;28;20460;-89
2024/03/18 03:30:40;;;;;;;18.95;2.45;;;6.90;99.90;;;;;;4978620;28;20117;-88
2024/03/18 03:33:07;;;;;;;16.60;2.05;;;6.90;99.90;;;;;;4978322;28;20125;-88
2024/03/18 03:35:32;;;;;;;13.75;1.92;;;6.90;99.90;;;;;;4980181;28;20034;-88
2024/03/18 03:37:58;;;;;;;16.23;3.08;;;6.80;99.90;;;;;;4981568;28;20028;-87
2024/03/18 03:40:24;;;;;;;16.63;2.95;;;6.80;99.90;;;;;;4983757;28;20030;-89
2024/03/18 03:42:49;;;;;;;16.65;2.00;;;6.80;99.90;;;;;;5001650;28;20026;-90
2024/03/18 03:45:16;;;;;;;9.65;1.70;;;6.70;99.90;;;;;;5001453;28;20040;-88
2024/03/18 03:47:42;;;;;;;17.02;3.38;;;6.70;99.90;;;;;;5000998;28;20015;-89
2024/03/18 03:50:10;;;;;;;14.75;2.58;;;6.70;99.90;;;;;;4984571;28;20034;-89
2024/03/18 03:52:35;;;;;;;12.77;2.90;;;6.60;99.90;;;;;;4981047;28;20125;-88
2024/03/18 03:55:01;;;;;;;13.93;1.95;;;6.60;99.90;;;;;;4980401;28;20073;-88
2024/03/18 03:57:27;;;;;;;11.85;1.63;;;6.60;99.90;;;;;;4980601;28;20025;-88
2024/03/18 03:59:52;;;;;;;6.95;1.65;;;6.60;99.90;;;;;;4979680;28;20029;-87
2024/03/18 04:02:18;;;;;;;12.23;2.30;;;6.60;99.90;;;;;;4978838;28;20495;-88
2024/03/18 04:04:44;;;;;;;8.00;1.50;;;6.50;99.90;;;;;;4978520;28;20061;-88
2024/03/18 04:07:09;;;;;;;15.85;2.50;;;6.50;99.90;;;;;;4979128;28;20035;-88
2024/03/18 04:09:35;;;;;;;15.05;2.38;;;6.50;99.90;;;;;;4978795;28;20126;-88
2024/03/18 04:12:02;;;;;;;12.57;2.30;;;6.50;99.90;;;;;;4978005;28;20542;-88
2024/03/18 04:14:28;;;;;;;16.98;2.33;;;6.50;99.90;;;;;;4978428;28;20034;-89
2024/03/18 04:16:54;;;;;;;12.73;1.67;;;6.40;99.90;;;;;;4977651;28;20077;-88
2024/03/18 04:19:19;;;;;;;16.60;2.05;;;6.40;99.90;;;;;;4978068;28;20042;-87
2024/03/18 04:21:46;;;;;;;11.38;1.98;;;6.40;99.90;;;;;;4977893;28;20038;-88
2024/03/18 04:24:11;;;;;;;4.57;1.33;;;6.30;99.90;;;;;;4977634;28;20027;-87
2024/03/18 04:26:37;;;;;;;10.73;1.77;;;6.40;99.90;;;;;;4978625;28;20053;-88
2024/03/18 04:29:06;;;;;;;13.18;2.58;;;6.30;99.90;;;;;;4978032;28;20022;-86
2024/03/18 04:31:32;;;;;;;15.43;1.52;;;6.30;99.90;;;;;;4977129;28;20026;-86
2024/03/18 04:33:58;;;;;;;21.63;2.47;;;6.40;99.90;;;;;;4978435;28;20101;-87
2024/03/18 04:36:24;;;;;;;15.52;1.80;;;6.30;99.90;;;;;;4977325;28;20072;-87
2024/03/18 04:38:49;;;;;;;12.65;2.30;;;6.30;99.90;;;;;;4978186;28;20057;-87
2024/03/18 04:41:15;;;;;;;17.25;1.98;;;6.20;99.90;;;;;;4977712;28;20042;-88
2024/03/18 04:43:40;;;;;;;13.30;1.88;;;6.20;99.90;;;;;;4976929;28;20033;-86
2024/03/18 04:46:07;;;;;;;12.32;1.90;;;6.20;99.90;;;;;;4977305;28;20435;-86
2024/03/18 04:48:32;;;;;;;9.27;1.50;;;6.20;99.90;;;;;;4977247;28;20022;-89
2024/03/18 04:50:58;;;;;;;9.63;1.63;;;6.10;99.90;;;;;;4975913;28;20034;-87
2024/03/18 04:53:23;;;;;;;14.20;2.17;;;6.10;99.90;;;;;;4976521;28;20051;-87
2024/03/18 04:55:49;;;;;;;17.50;1.83;;;6.10;99.90;;;;;;4976683;28;20030;-89
2024/03/18 04:58:15;;;;;;;9.00;1.70;;;6.10;99.90;;;;;;4976731;28;20031;-89
2024/03/18 05:00:41;;;;;;;21.55;2.15;;;6.10;99.90;;;;;;4993825;28;20027;-89
2024/03/18 05:03:06;;;;;;;19.60;2.05;;;6.00;99.90;;;;;;4976634;28;20037;-89
2024/03/18 05:05:32;;;;;;;11.80;1.50;;;6.00;99.90;;;;;;4976741;28;20019;-90
2024/03/18 05:07:58;;;;;;;12.13;2.20;;;6.00;99.90;;;;;;4976429;28;20398;-88
2024/03/18 05:10:26;;;;;;;9.75;1.75;;;6.00;99.90;;;;;;4976560;28;20503;-89
2024/03/18 05:12:53;;;;;;;15.55;2.00;;;6.00;99.90;;;;;;4975951;28;20026;-88
2024/03/18 05:15:18;;;;;;;11.90;1.52;;;6.00;99.90;;;;;;4976365;28;20034;-87
2024/03/18 05:17:45;;;;;;;12.52;2.38;;;6.00;99.90;;;;;;4976699;28;20479;-89
2024/03/18 05:20:13;;;;;;;7.72;1.52;;;6.00;99.90;;;;;;4994235;28;20503;-89
2024/03/18 05:22:39;;;;;;;13.35;2.53;;;5.90;99.90;;;;;;4976409;28;20114;-88
2024/03/18 05:25:13;;;;;;;10.02;1.70;;;6.00;99.90;;;;;;4976635;28;20018;-88
2024/03/18 05:27:39;;;;;;;13.13;2.13;;;6.00;99.90;;;;;;4976895;28;20023;-88
2024/03/18 05:30:05;;;;;;;13.10;2.15;;;6.00;99.90;;;;;;4975863;28;20076;-88
2024/03/18 05:32:32;;;;;;;7.28;1.30;;;6.00;99.90;;;;;;4975695;28;20031;-88
2024/03/18 05:34:57;;;;;;;16.08;2.22;;;6.00;99.90;;;;;;4995367;28;20042;-87
2024/03/18 05:37:25;;;;;;;12.30;1.60;;;6.10;99.90;;;;;;4961327;28;20050;-89
2024/03/18 05:39:51;;;;;;;14.43;2.00;;;6.10;99.90;;;;;;4979098;28;20173;-89
2024/03/18 05:42:16;;;;;;;6.60;1.30;;;6.10;99.90;;;;;;4976622;28;20034;-88
2024/03/18 05:44:42;;;;;;;6.05;1.40;;;6.10;99.90;;;;;;4978046;28;20392;-89
2024/03/18 05:47:08;;;;;;;14.40;1.80;;;6.00;99.90;;;;;;4979675;28;20038;-89
2024/03/18 05:49:34;;;;;;;13.93;1.73;;;6.00;99.90;;;;;;4980042;28;20025;-88
2024/03/18 05:52:00;;;;;;;19.02;1.95;;;6.00;99.90;;;;;;4978920;28;20080;-89
2024/03/18 05:54:26;;;;;;;10.93;1.67;;;6.00;99.90;;;;;;4979489;28;20044;-88
2024/03/18 05:56:52;;;;;;;17.73;1.85;;;5.90;99.90;;;;;;4978960;28;20026;-88
2024/03/18 05:59:18;;;;;;;17.23;2.00;;;5.90;99.90;;;;;;4979604;28;20031;-88
2024/03/18 06:01:44;;;;;;;21.95;2.70;;;5.90;99.90;;;;;;4980005;28;20090;-88
2024/03/18 06:04:12;;;;;;;8.93;2.88;;;5.80;99.90;;;;;;4997160;28;20030;-88
2024/03/18 06:06:41;;;;;;;8.55;1.27;;;5.70;99.90;;;;;;4980073;28;20030;-87
2024/03/18 06:09:08;;;;;;;20.15;2.10;;;5.70;99.90;;;;;;4979772;28;20018;-88
2024/03/18 06:11:34;;;;;;;7.22;1.50;;;5.70;99.90;;;;;;4979631;28;20497;-89
2024/03/18 06:14:00;;;;;;;10.38;1.40;;;5.70;99.90;;;;;;4979148;28;20388;-88
2024/03/18 06:16:26;;;;;;;21.27;2.65;;;5.70;99.90;;;;;;4979311;28;20716;-88
2024/03/18 06:18:54;;;;;;;11.90;2.42;;;5.70;99.90;;;;;;4978877;28;20151;-89
2024/03/18 06:21:20;;;;;;;20.33;2.75;;;5.70;99.90;;;;;;4978093;28;20027;-89
2024/03/18 06:23:50;;;;;;;19.67;2.63;;;5.70;99.90;;;;;;4977793;28;20121;-89
2024/03/18 06:26:17;;;;;;;16.80;2.03;;;5.80;99.90;;;;;;4977927;28;20390;-88
2024/03/18 06:28:43;;;;;;;16.15;1.83;;;5.80;99.90;;;;;;4996087;28;20089;-88
2024/03/18 06:31:10;;;;;;;15.05;1.90;;;5.70;99.90;;;;;;4978476;28;20031;-88
2024/03/18 06:33:36;;;;;;;15.32;2.28;;;5.70;99.90;;;;;;4978215;28;20050;-90
2024/03/18 06:36:08;;;;;;;12.35;2.03;;;5.70;99.90;;;;;;4977692;28;20029;-88
2024/03/18 06:38:35;;;;;;;21.45;2.28;;;5.70;99.90;;;;;;4995023;28;20025;-89
2024/03/18 06:41:00;;;;;;;14.63;1.60;;;5.70;99.90;;;;;;4978088;28;20045;-88
2024/03/18 06:43:26;;;;;;;19.40;1.83;;;5.70;99.90;;;;;;4977863;28;20023;-88
2024/03/18 06:45:52;;;;;;;12.98;2.42;;;5.70;99.90;;;;;;4977611;28;20575;-88
2024/03/18 06:48:17;;;;;;;16.83;2.10;;;5.60;99.90;;;;;;4977958;28;20057;-88
2024/03/18 06:50:43;;;;;;;16.50;2.10;;;5.60;99.90;;;;;;4972905;28;20026;-88
2024/03/18 06:53:09;;;;;;;10.55;2.67;;;5.60;99.90;;;;;;4978907;28;20046;-88
2024/03/18 06:55:34;;;;;;;15.10;1.75;;;5.60;99.90;;;;;;4977928;28;20038;-88
2024/03/18 06:58:02;;;;;;;20.30;2.08;;;5.60;99.90;;;;;;4978078;28;20380;-89
2024/03/18 07:00:28;;;;;;;12.43;2.15;;;5.60;99.90;;;;;;4978779;28;20019;-88
2024/03/18 07:02:54;;;;;;;10.73;1.70;;;5.60;99.90;;;;;;4978249;28;20026;-89
2024/03/18 07:05:21;;;;;;;18.92;2.13;;;5.60;99.90;;;;;;4977641;28;20631;-89
2024/03/18 07:07:47;;;;;;;17.80;2.10;;;5.70;99.90;;;;;;4979950;28;20045;-89
2024/03/18 07:10:13;;;;;;;12.55;2.17;;;5.70;99.90;;;;;;4978205;28;20030;-88
2024/03/18 07:12:40;;;;;;;9.95;1.58;;;5.70;99.90;;;;;;4977160;28;20471;-87
2024/03/18 07:15:07;;;;;;;19.05;2.15;;;5.70;99.90;;;;;;4977561;28;20034;-88
2024/03/18 07:17:33;;;;;;;12.48;2.45;;;5.70;99.90;;;;;;4976935;28;20476;-89
2024/03/18 07:19:59;;;;;;;12.57;1.88;;;5.70;99.90;;;;;;4976760;28;20081;-87
2024/03/18 07:22:25;;;;;;;10.82;2.13;;;5.70;99.90;;;;;;4976820;28;20357;-89
2024/03/18 07:24:52;;;;;;;14.43;2.08;;;5.80;99.90;;;;;;4994347;28;20369;-89
2024/03/18 07:27:17;;;;;;;19.45;2.85;;;5.70;99.90;;;;;;4977167;28;20038;-88
2024/03/18 07:29:43;;;;;;;8.73;2.80;;;5.80;99.90;;;;;;4976883;28;20028;-88
2024/03/18 07:32:10;;;;;;;12.77;1.73;;;5.80;99.90;;;;;;4977404;28;20475;-89
2024/03/18 07:34:37;;;;;;;18.88;2.28;;;5.90;99.90;;;;;;4978344;28;20042;-89
2024/03/18 07:37:02;;;;;;;18.65;2.10;;;5.90;99.90;;;;;;4976684;28;20375;-88
2024/03/18 07:39:28;;;;;;;16.52;1.80;;;6.00;99.90;;;;;;4976856;28;20027;-89
2024/03/18 07:41:56;;;;;;;13.77;2.30;;;6.10;99.90;;;;;;4976723;28;20030;-88
2024/03/18 07:44:22;;;;;;;15.40;2.20;;;6.10;99.90;;;;;;4976397;28;20100;-88
2024/03/18 07:46:48;;;;;;;16.33;1.98;;;6.20;99.90;;;;;;4976812;28;20034;-88
2024/03/18 07:49:14;;;;;;;22.65;2.25;;;6.30;99.90;;;;;;4961620;28;20490;-88
2024/03/18 07:51:40;;;;;;;14.68;2.22;;;6.30;99.90;;;;;;4976203;28;20105;-89
2024/03/18 07:54:06;;;;;;;17.40;2.42;;;6.40;99.90;;;;;;4976497;28;20137;-89
2024/03/18 07:56:32;;;;;;;19.08;2.05;;;6.50;99.90;;;;;;4977186;28;20029;-88
2024/03/18 07:58:58;;;;;;;22.55;2.10;;;6.60;99.90;;;;;;4976679;28;20041;-88
2024/03/18 08:01:25;;;;;;;17.42;2.50;;;6.60;99.90;;;;;;4977378;28;20033;-89
2024/03/18 08:03:53;;;;;;;16.63;2.70;;;6.70;99.90;;;;;;4978225;28;20045;-89
2024/03/18 08:06:19;;;;;;;20.02;2.05;;;6.80;99.90;;;;;;4977864;28;20483;-87
2024/03/18 08:08:45;;;;;;;22.13;3.22;;;6.90;99.90;;;;;;4976440;28;20018;-89
2024/03/18 08:11:11;;;;;;;20.23;2.35;;;7.00;99.90;;;;;;4977243;28;20026;-88
2024/03/18 08:13:36;;;;;;;16.85;2.25;;;7.00;99.90;;;;;;4977377;28;20042;-89
2024/03/18 08:16:02;;;;;;;19.42;2.53;;;7.10;99.90;;;;;;4972361;28;20118;-88
2024/03/18 08:18:28;;;;;;;24.85;3.28;;;7.20;99.90;;;;;;4977586;28;20022;-88
2024/03/18 08:20:54;;;;;;;14.90;2.10;;;7.30;99.90;;;;;;4977010;28;20030;-89
2024/03/18 08:23:20;;;;;;;20.38;2.83;;;7.40;99.90;;;;;;4977616;28;20027;-89
2024/03/18 08:25:46;;;;;;;16.55;2.13;;;7.50;99.90;;;;;;4977764;28;20121;-90
2024/03/18 08:28:11;;;;;;;16.65;2.00;;;7.50;99.90;;;;;;4979578;28;20030;-89
2024/03/18 08:30:37;;;;;;;10.23;2.20;;;7.60;99.90;;;;;;4979009;28;20024;-90
2024/03/18 08:33:05;;;;;;;22.05;2.65;;;7.70;99.90;;;;;;4978744;28;20499;-91
2024/03/18 08:35:31;;;;;;;16.17;3.35;;;7.70;99.90;;;;;;4978935;28;20514;-90
2024/03/18 08:37:57;;;;;;;19.38;3.20;;;7.80;99.90;;;;;;4980198;28;20090;-90
2024/03/18 08:40:23;;;;;;;14.82;1.90;;;7.80;99.90;;;;;;4979144;28;20069;-90
2024/03/18 08:42:49;;;;;;;14.55;2.80;;;7.90;99.90;;;;;;4978391;28;20475;-90
2024/03/18 08:45:14;;;;;;;15.07;3.22;;;8.00;99.90;;;;;;4979437;28;20034;-89
2024/03/18 08:47:40;;;;;;;15.38;1.98;;;8.10;99.90;;;;;;4977474;28;20026;-90
2024/03/18 08:50:06;;;;;;;19.10;2.35;;;8.30;99.90;;;;;;4976645;28;20049;-90
2024/03/18 08:52:32;;;;;;;13.52;1.98;;;8.40;99.90;;;;;;4973307;28;20043;-89
2024/03/18 08:54:57;;;;;;;19.88;2.15;;;8.50;99.90;;;;;;4973174;28;20081;-90
2024/03/18 08:57:23;;;;;;;16.10;1.75;;;8.60;99.90;;;;;;4973624;28;20031;-89
2024/03/18 08:59:49;;;;;;;12.63;2.05;;;8.60;99.90;;;;;;4967370;28;20030;-90
2024/03/18 09:02:15;;;;;;;13.15;2.05;;;8.70;99.90;;;;;;4964792;28;20020;-89
2024/03/18 09:04:40;;;;;;;9.80;2.13;;;8.80;99.90;;;;;;4972770;28;20062;-90
2024/03/18 09:07:07;;;;;;;9.88;1.80;;;8.90;99.90;;;;;;4972679;28;20022;-89
2024/03/18 09:09:35;;;;;;;14.73;1.73;;;8.90;99.90;;;;;;4973270;28;20030;-89
2024/03/18 09:12:02;;;;;;;16.15;2.72;;;9.00;99.90;;;;;;4973315;28;20019;-89
2024/03/18 09:14:29;;;;;;;6.32;1.45;;;9.10;99.90;;;;;;4972518;28;20027;-90
2024/03/18 09:16:55;;;;;;;9.45;2.17;;;9.30;99.90;;;;;;4972452;28;20035;-89
2024/03/18 09:19:21;;;;;;;8.68;1.65;;;9.40;99.90;;;;;;4972495;28;20027;-90
2024/03/18 09:21:47;;;;;;;8.85;1.30;;;9.60;99.90;;;;;;4976503;28;20058;-90
2024/03/18 09:24:14;;;;;;;15.90;1.92;;;9.70;99.90;;;;;;4976363;28;20054;-90
2024/03/18 09:26:40;;;;;;;9.85;1.60;;;9.80;99.90;;;;;;4976195;28;20027;-91
2024/03/18 09:29:06;;;;;;;10.32;1.40;;;9.90;99.90;;;;;;4975376;28;20522;-90
2024/03/18 09:31:32;;;;;;;10.73;1.63;;;10.00;99.90;;;;;;4976231;28;20035;-90
2024/03/18 09:33:58;;;;;;;10.30;1.33;;;10.00;99.90;;;;;;4975164;28;20522;-90
2024/03/18 09:36:23;;;;;;;16.95;1.88;;;10.10;99.90;;;;;;4978841;28;20492;-90
2024/03/18 09:38:52;;;;;;;9.93;1.83;;;10.20;99.90;;;;;;4977504;28;20015;-89
2024/03/18 09:41:19;;;;;;;11.85;3.03;;;10.30;99.90;;;;;;4975660;28;20038;-90
2024/03/18 09:43:46;;;;;;;9.90;1.13;;;10.40;99.90;;;;;;4975646;28;20022;-91
2024/03/18 09:46:18;;;;;;;18.63;2.92;;;10.50;99.90;;;;;;4975947;28;20121;-92
2024/03/18 09:48:44;;;;;;;9.05;2.20;;;10.70;99.90;;;;;;4978030;28;20038;-89
2024/03/18 09:51:15;;;;;;;12.40;3.60;;;11.00;99.90;;;;;;4976594;28;20392;-91
2024/03/18 09:53:43;;;;;;;6.90;1.20;;;11.20;99.90;;;;;;4976608;28;20047;-91
2024/03/18 09:56:12;;;;;;;8.25;1.45;;;11.30;99.90;;;;;;4976141;28;20033;-90
2024/03/18 09:58:37;;;;;;;10.43;1.40;;;11.50;99.90;;;;;;4978087;28;20022;-90
2024/03/18 10:01:03;;;;;;;10.93;1.77;;;11.70;99.90;;;;;;4978470;28;20109;-91
2024/03/18 10:03:29;;;;;;;7.15;1.20;;;11.90;99.90;;;;;;4978871;28;20047;-91
2024/03/18 10:05:55;;;;;;;12.93;1.52;;;12.00;99.90;;;;;;4977763;28;20031;-91
2024/03/18 10:08:21;;;;;;;8.27;2.15;;;12.10;99.90;;;;;;4979600;28;20034;-90
2024/03/18 10:10:51;;;;;;;9.98;1.67;;;12.20;99.90;;;;;;4978183;28;20026;-90
2024/03/18 10:13:18;;;;;;;9.25;1.83;;;12.30;99.90;;;;;;4975782;28;20041;-90
2024/03/18 10:15:44;;;;;;;6.70;1.35;;;12.50;99.90;;;;;;4975754;28;20035;-91
2024/03/18 10:18:16;;;;;;;9.85;1.52;;;12.60;99.90;;;;;;4975991;28;20492;-91
2024/03/18 10:20:42;;;;;;;8.25;1.50;;;12.70;99.90;;;;;;4971430;28;20027;-91
2024/03/18 10:23:15;;;;;;;11.90;2.40;;;12.80;99.90;;;;;;4975033;28;20041;-91
2024/03/18 10:25:41;;;;;;;7.53;1.55;;;12.90;99.90;;;;;;4972303;28;20461;-92
2024/03/18 10:28:09;;;;;;;7.32;1.60;;;13.10;99.90;;;;;;4975294;28;20019;-92
2024/03/18 10:30:38;;;;;;;6.38;1.45;;;13.30;99.90;;;;;;4968444;28;20062;-91
2024/03/18 10:33:05;;;;;;;8.60;1.90;;;13.60;99.90;;;;;;4975843;28;20043;-92
2024/03/18 10:35:34;;;;;;;6.28;1.70;;;13.90;99.90;;;;;;4975277;28;20085;-91
2024/03/18 10:38:03;;;;;;;8.10;1.77;;;14.00;99.90;;;;;;4975043;28;20048;-92
2024/03/18 10:40:38;;;;;;;6.07;1.33;;;14.00;99.90;;;;;;4974389;28;20031;-91
2024/03/18 10:43:04;;;;;;;6.70;2.10;;;13.90;99.90;;;;;;4974916;28;20041;-91
2024/03/18 10:45:34;;;;;;;7.78;2.10;;;13.80;99.90;;;;;;4976911;28;20125;-91
2024/03/18 10:48:04;;;;;;;11.43;1.83;;;13.80;99.90;;;;;;4975915;28;20073;-91
2024/03/18 10:53:21;;;;;;;9.63;1.80;;;13.70;99.90;;;;;;5036110;23;20115;-82
2024/03/18 10:55:49;;;;;;;10.27;1.65;;;13.60;99.90;;;;;;5014488;28;20057;-83
2024/03/18 10:58:34;;;;;;;5.35;1.40;;;13.60;99.90;;;;;;5032619;28;20385;-81
2024/03/18 11:01:02;;;;;;;5.07;1.33;;;13.50;99.90;;;;;;5013404;28;20052;-80
2024/03/18 11:03:28;;;;;;;7.75;1.50;;;13.40;99.90;;;;;;5014845;28;20056;-83
2024/03/18 11:05:55;;;;;;;5.75;1.30;;;13.30;99.90;;;;;;5014770;28;20453;-83
2024/03/18 11:08:22;;;;;;;6.20;1.50;;;13.20;99.90;;;;;;5015573;28;20060;-83
2024/03/18 11:10:53;;;;;;;3.53;1.00;;;13.20;99.90;;;;;;5014951;28;20432;-80
2024/03/18 11:13:21;;;;;;;3.10;1.30;;;13.10;99.90;;;;;;5031849;28;20136;-82
2024/03/18 11:15:46;;;;;;;6.45;0.90;;;12.90;99.90;;;;;;5013106;28;20358;-81
2024/03/18 11:18:17;;;;;;;5.35;1.13;;;12.80;99.90;;;;;;5030243;28;20022;-79
2024/03/18 11:20:47;;;;;;;5.93;1.25;;;12.80;99.90;;;;;;5013296;28;20029;-84
2024/03/18 11:23:18;;;;;;;2.03;0.70;;;12.80;99.90;;;;;;5016007;28;20082;-84
2024/03/18 11:25:50;;;;;;;2.47;0.90;;;13.00;99.90;;;;;;5013204;28;20322;-84
2024/03/18 11:28:16;;;;;;;3.58;0.90;;;13.40;99.90;;;;;;5014461;28;20052;-85
2024/03/18 11:30:42;;;;;;;3.65;0.90;;;13.90;99.90;;;;;;5015449;28;20480;-83
2024/03/18 11:33:12;;;;;;;2.40;0.80;;;14.30;99.90;;;;;;5011643;28;20105;-84
2024/03/18 11:35:41;;;;;;;3.42;0.70;;;14.80;99.90;;;;;;5032185;28;20025;-84
2024/03/18 11:38:12;;;;;;;2.88;0.90;;;15.30;99.90;;;;;;5032185;28;20036;-83
2024/03/18 11:40:39;;;;;;;5.38;1.30;;;15.60;99.90;;;;;;5014849;28;20076;-82
2024/03/18 11:43:05;;;;;;;3.38;0.95;;;15.70;99.10;;;;;;5013834;28;20040;-82
2024/03/18 11:45:31;;;;;;;3.60;0.80;;;16.00;99.10;;;;;;5014885;28;20026;-82
2024/03/18 11:48:08;;;;;;;2.15;0.50;;;16.40;98.70;;;;;;5032497;28;20429;-82
2024/03/18 11:50:40;;;;;;;1.95;0.80;;;16.70;97.20;;;;;;5032604;28;20065;-86
2024/03/18 11:53:07;;;;;;;2.78;0.68;;;17.00;95.10;;;;;;5031541;28;20129;-81
2024/03/18 11:55:40;;;;;;;3.25;0.80;;;17.00;93.80;;;;;;5029277;28;20034;-82
2024/03/18 11:58:07;;;;;;;2.50;0.60;;;17.00;92.30;;;;;;5004491;28;20037;-82
2024/03/18 12:00:34;;;;;;;4.78;0.80;;;16.90;91.70;;;;;;5020187;28;20099;-82
2024/03/18 12:03:04;;;;;;;3.55;0.70;;;16.90;91.10;;;;;;5025408;28;20029;-82
2024/03/18 12:05:31;;;;;;;5.20;1.17;;;16.90;90.10;;;;;;5023763;28;20141;-83
2024/03/18 12:07:58;;;;;;;2.05;0.60;;;17.00;88.00;;;;;;5003656;28;20056;-83
2024/03/18 12:10:24;;;;;;;3.67;0.70;;;17.20;88.20;;;;;;5022859;28;20403;-84
2024/03/18 12:12:50;;;;;;;4.30;0.75;;;17.30;85.00;;;;;;5003403;28;20125;-86
2024/03/18 12:15:16;;;;;;;2.58;0.77;;;17.40;83.60;;;;;;5004144;28;20064;-82
2024/03/18 12:17:46;;;;;;;1.20;0.90;;;17.30;82.90;;;;;;5022266;28;20065;-83
2024/03/18 12:20:24;;;;;;;3.33;0.77;;;17.40;82.40;;;;;;5002134;28;20018;-83
2024/03/18 12:22:59;;;;;;;1.52;0.88;;;17.50;81.90;;;;;;5022602;28;20377;-83
2024/03/18 12:28:32;;;;;;;1.67;0.70;;;17.70;81.90;;;;;;5023052;28;20478;-83
2024/03/18 12:31:00;;;;;;;4.10;0.80;;;17.70;81.00;;;;;;5021138;28;20613;-83
2024/03/18 12:33:29;;;;;;;3.85;0.73;;;17.60;80.00;;;;;;5002444;28;20030;-84
2024/03/18 12:35:55;;;;;;;4.43;0.73;;;17.60;79.50;;;;;;5021177;28;20026;-83
2024/03/18 12:38:21;;;;;;;3.65;0.90;;;17.60;78.50;;;;;;5003996;28;20022;-84
2024/03/18 12:40:48;;;;;;;5.70;0.80;;;17.70;79.30;;;;;;5002538;28;20413;-86
2024/03/18 12:43:14;;;;;;;2.42;0.88;;;18.10;79.40;;;;;;5003079;28;20080;-82
2024/03/18 12:45:40;;;;;;;3.92;0.90;;;18.40;79.30;;;;;;5022453;28;20029;-81
2024/03/18 12:48:07;;;;;;;4.15;1.23;;;18.80;78.10;;;;;;5002648;28;20109;-82
2024/03/18 12:50:33;;;;;;;3.33;0.93;;;19.00;77.10;;;;;;5015494;28;20030;-84